Dromore, United Kingdom
Current Conditions -  °F | °C
As of 6:20 PM on Thursday 27 Nov 2014 (Local Time) from EGAA Reporting Station
Broken Clouds Broken Clouds  
Wind Chill: 42°   Ceiling: 4700
Heat Index: 46°   Visibility: 6mi
Dew Point: 45°   Wind: 8mph
Humidity: 93%   Direction: 110°ESE
Pressure: 29.5"   Gusts: NA
Location:  54.41°N, 6.15°W
Report Text: EGAA 271820Z 11007KT 9999 FEW025 BKN047 08/07 Q0999
Loading
Personal Weather Stations






























Interactive Weather Map New forecast layout! Learn more

10-Day Weather Forecast

Advertisements
Track Severe Weather on mobile